Main page
METAR-TAF:

METAR-TAF

Airports :

Zahedan Airport

Zahedan, Iran

latitude: 29-28N, longitude: 060-53E, elevation: 1370 m

Current weather observation

The report was made 19 minutes ago, at 01:00 UTC
Wind 8 kt from the Southwest
Temperature 23°C
Humidity 29%
Pressure 1015 hPa
Visibility 10 km or more
no clouds below 1500 m and no cumulonimbus

METAR: OIZH 230100Z 23008KT CAVOK 23/04 Q1014 A2997

Time: 05:49 (01:19 UTC)

Forecast

The report was made 2 hours and 19 minutes ago, at 23:00 UTC
Forecast valid from 23 at 00 UTC to 24 at 06 UTC
Wind 16 kt from the West/Southwest
Visibility: 7000 m
Few clouds at a height of 3500 ft
Temporary
from 23 at 08 UTC to 23 at 18 UTC
Wind 25 kt from the West/Southwest with gusts up to 35 kt
Visibility: 2000 m
Few clouds at a height of 3500 ft, Cumulonimbus.
Scattered clouds at a height of 4000 ft
Scattered clouds at a height of 10000 ft
sand

TAF: OIZH 222300Z 2300/2406 24016KT 7000 FEW035 TEMPO 2308/2318 24025G35KT 2000 SA FEW035CB SCT040 SCT100

Weather observations and forecasts of more than 4000 airports (METAR and TAF reports).

The available stations are represented by yellow and red dots on the map.

Hover mouse over dot to see the name of the station.

Then click to see weather observations and forecasts.

To change the map : click on the green buttons with a black cross to zoom in, on the green button with a dash to zoom out, or on the green arrows for adjacent maps.


METAR-TAF: